sensor_id;sensor_type;location;lat;lon;timestamp;temperature;humidity
44851;DHT22;30583;48.714;9.386;2023-08-06T00:01:40;18.60;78.80
44851;DHT22;30583;48.714;9.386;2023-08-06T00:04:05;18.50;78.90
44851;DHT22;30583;48.714;9.386;2023-08-06T00:06:31;18.70;78.30
44851;DHT22;30583;48.714;9.386;2023-08-06T00:08:56;18.40;78.60
44851;DHT22;30583;48.714;9.386;2023-08-06T00:11:22;17.80;80.70
44851;DHT22;30583;48.714;9.386;2023-08-06T00:13:47;17.70;81.20
44851;DHT22;30583;48.714;9.386;2023-08-06T00:16:13;17.90;80.90
44851;DHT22;30583;48.714;9.386;2023-08-06T00:18:39;17.80;80.70
44851;DHT22;30583;48.714;9.386;2023-08-06T00:21:05;17.70;81.00
44851;DHT22;30583;48.714;9.386;2023-08-06T00:23:32;17.80;80.70
44851;DHT22;30583;48.714;9.386;2023-08-06T00:25:57;17.70;81.50
44851;DHT22;30583;48.714;9.386;2023-08-06T00:28:23;17.30;82.20
44851;DHT22;30583;48.714;9.386;2023-08-06T00:30:55;17.80;80.80
44851;DHT22;30583;48.714;9.386;2023-08-06T00:33:22;17.90;80.00
44851;DHT22;30583;48.714;9.386;2023-08-06T00:35:47;18.00;79.90
44851;DHT22;30583;48.714;9.386;2023-08-06T00:38:13;17.50;80.90
44851;DHT22;30583;48.714;9.386;2023-08-06T00:40:39;17.40;81.70
44851;DHT22;30583;48.714;9.386;2023-08-06T00:43:04;17.60;81.40
44851;DHT22;30583;48.714;9.386;2023-08-06T00:45:35;17.50;81.60
44851;DHT22;30583;48.714;9.386;2023-08-06T00:48:02;18.00;80.00
44851;DHT22;30583;48.714;9.386;2023-08-06T00:50:28;18.00;78.90
44851;DHT22;30583;48.714;9.386;2023-08-06T00:52:54;18.10;78.80
44851;DHT22;30583;48.714;9.386;2023-08-06T00:55:20;18.20;78.30
44851;DHT22;30583;48.714;9.386;2023-08-06T00:57:46;17.70;79.90
44851;DHT22;30583;48.714;9.386;2023-08-06T01:00:12;17.90;79.50
44851;DHT22;30583;48.714;9.386;2023-08-06T01:02:38;17.90;79.60
44851;DHT22;30583;48.714;9.386;2023-08-06T01:05:03;18.10;79.10
44851;DHT22;30583;48.714;9.386;2023-08-06T01:07:46;18.10;78.50
44851;DHT22;30583;48.714;9.386;2023-08-06T01:15:56;18.40;77.10
44851;DHT22;30583;48.714;9.386;2023-08-06T01:18:23;18.50;77.10
44851;DHT22;30583;48.714;9.386;2023-08-06T01:20:49;18.60;76.70
44851;DHT22;30583;48.714;9.386;2023-08-06T01:23:15;18.50;76.40
44851;DHT22;30583;48.714;9.386;2023-08-06T01:31:22;17.30;79.80
44851;DHT22;30583;48.714;9.386;2023-08-06T01:33:50;17.70;79.60
44851;DHT22;30583;48.714;9.386;2023-08-06T01:36:17;18.00;77.70
44851;DHT22;30583;48.714;9.386;2023-08-06T01:38:43;18.10;77.30
44851;DHT22;30583;48.714;9.386;2023-08-06T01:41:09;18.20;76.70
44851;DHT22;30583;48.714;9.386;2023-08-06T01:43:34;17.90;77.20
44851;DHT22;30583;48.714;9.386;2023-08-06T01:46:00;17.90;76.90
44851;DHT22;30583;48.714;9.386;2023-08-06T01:48:25;17.60;77.80
44851;DHT22;30583;48.714;9.386;2023-08-06T01:50:51;17.40;77.70
44851;DHT22;30583;48.714;9.386;2023-08-06T01:53:16;17.70;76.20
44851;DHT22;30583;48.714;9.386;2023-08-06T01:55:42;17.60;76.90
44851;DHT22;30583;48.714;9.386;2023-08-06T01:58:12;18.00;75.90
44851;DHT22;30583;48.714;9.386;2023-08-06T02:00:38;17.80;75.80
44851;DHT22;30583;48.714;9.386;2023-08-06T02:03:03;17.80;76.20
44851;DHT22;30583;48.714;9.386;2023-08-06T02:05:29;18.10;75.40
44851;DHT22;30583;48.714;9.386;2023-08-06T02:07:54;17.90;76.00
44851;DHT22;30583;48.714;9.386;2023-08-06T02:10:20;17.70;76.10
44851;DHT22;30583;48.714;9.386;2023-08-06T02:12:45;17.70;76.80
44851;DHT22;30583;48.714;9.386;2023-08-06T02:15:11;17.60;76.90
44851;DHT22;30583;48.714;9.386;2023-08-06T02:17:36;17.70;76.50
44851;DHT22;30583;48.714;9.386;2023-08-06T02:20:02;18.00;76.10
44851;DHT22;30583;48.714;9.386;2023-08-06T02:22:28;18.20;75.60
44851;DHT22;30583;48.714;9.386;2023-08-06T02:24:53;17.90;76.00
44851;DHT22;30583;48.714;9.386;2023-08-06T02:27:19;17.60;77.60
44851;DHT22;30583;48.714;9.386;2023-08-06T02:29:44;17.30;78.80
44851;DHT22;30583;48.714;9.386;2023-08-06T02:32:10;17.10;79.10
44851;DHT22;30583;48.714;9.386;2023-08-06T02:34:36;17.00;80.20
44851;DHT22;30583;48.714;9.386;2023-08-06T02:37:01;17.70;78.50
44851;DHT22;30583;48.714;9.386;2023-08-06T02:39:27;18.00;77.50
44851;DHT22;30583;48.714;9.386;2023-08-06T02:41:52;17.90;77.60
44851;DHT22;30583;48.714;9.386;2023-08-06T02:44:18;18.10;77.20
44851;DHT22;30583;48.714;9.386;2023-08-06T02:46:44;18.00;77.20
44851;DHT22;30583;48.714;9.386;2023-08-06T02:49:10;18.00;77.10
44851;DHT22;30583;48.714;9.386;2023-08-06T02:51:36;17.60;78.10
44851;DHT22;30583;48.714;9.386;2023-08-06T02:54:01;17.30;79.20
44851;DHT22;30583;48.714;9.386;2023-08-06T02:56:27;17.60;78.70
44851;DHT22;30583;48.714;9.386;2023-08-06T02:58:52;17.80;77.40
44851;DHT22;30583;48.714;9.386;2023-08-06T03:01:18;17.80;77.40
44851;DHT22;30583;48.714;9.386;2023-08-06T03:03:43;18.00;76.40
44851;DHT22;30583;48.714;9.386;2023-08-06T03:06:09;18.20;75.80
44851;DHT22;30583;48.714;9.386;2023-08-06T03:08:35;17.90;76.00
44851;DHT22;30583;48.714;9.386;2023-08-06T03:11:00;17.80;76.40
44851;DHT22;30583;48.714;9.386;2023-08-06T03:13:26;17.70;76.80
44851;DHT22;30583;48.714;9.386;2023-08-06T03:15:58;17.80;76.30
44851;DHT22;30583;48.714;9.386;2023-08-06T03:18:24;18.00;75.50
44851;DHT22;30583;48.714;9.386;2023-08-06T03:20:51;17.60;75.90
44851;DHT22;30583;48.714;9.386;2023-08-06T03:23:17;17.60;76.20
44851;DHT22;30583;48.714;9.386;2023-08-06T03:25:43;17.80;75.70
44851;DHT22;30583;48.714;9.386;2023-08-06T03:28:09;17.40;76.10
44851;DHT22;30583;48.714;9.386;2023-08-06T03:30:35;17.50;76.00
44851;DHT22;30583;48.714;9.386;2023-08-06T03:33:01;17.70;74.90
44851;DHT22;30583;48.714;9.386;2023-08-06T03:35:26;17.30;75.50
44851;DHT22;30583;48.714;9.386;2023-08-06T03:37:52;17.20;76.60
44851;DHT22;30583;48.714;9.386;2023-08-06T03:40:18;16.90;77.40
44851;DHT22;30583;48.714;9.386;2023-08-06T03:42:43;17.20;76.20
44851;DHT22;30583;48.714;9.386;2023-08-06T03:45:09;17.30;75.60
44851;DHT22;30583;48.714;9.386;2023-08-06T03:47:34;17.40;75.20
44851;DHT22;30583;48.714;9.386;2023-08-06T03:50:00;17.30;74.90
44851;DHT22;30583;48.714;9.386;2023-08-06T03:52:26;17.40;74.60
44851;DHT22;30583;48.714;9.386;2023-08-06T03:54:51;17.60;74.60
44851;DHT22;30583;48.714;9.386;2023-08-06T03:57:18;17.20;75.10
44851;DHT22;30583;48.714;9.386;2023-08-06T03:59:43;17.20;75.90
44851;DHT22;30583;48.714;9.386;2023-08-06T04:02:09;17.50;74.60
44851;DHT22;30583;48.714;9.386;2023-08-06T04:04:34;17.70;73.50
44851;DHT22;30583;48.714;9.386;2023-08-06T04:07:00;17.70;73.40
44851;DHT22;30583;48.714;9.386;2023-08-06T04:09:28;17.70;73.30
44851;DHT22;30583;48.714;9.386;2023-08-06T04:11:54;17.30;74.10
44851;DHT22;30583;48.714;9.386;2023-08-06T04:14:19;17.50;74.30
44851;DHT22;30583;48.714;9.386;2023-08-06T04:16:45;17.20;74.80
44851;DHT22;30583;48.714;9.386;2023-08-06T04:19:10;17.30;75.00
44851;DHT22;30583;48.714;9.386;2023-08-06T04:21:36;17.60;73.30
44851;DHT22;30583;48.714;9.386;2023-08-06T04:24:02;17.70;72.40
44851;DHT22;30583;48.714;9.386;2023-08-06T04:26:27;17.70;72.50
44851;DHT22;30583;48.714;9.386;2023-08-06T04:28:53;17.80;72.20
44851;DHT22;30583;48.714;9.386;2023-08-06T04:31:18;17.70;72.00
44851;DHT22;30583;48.714;9.386;2023-08-06T04:33:44;17.60;72.90
44851;DHT22;30583;48.714;9.386;2023-08-06T04:36:09;17.40;72.90
44851;DHT22;30583;48.714;9.386;2023-08-06T04:38:35;17.60;72.80
44851;DHT22;30583;48.714;9.386;2023-08-06T04:41:02;17.70;72.80
44851;DHT22;30583;48.714;9.386;2023-08-06T04:43:28;17.80;72.20
44851;DHT22;30583;48.714;9.386;2023-08-06T04:45:55;18.00;72.40
44851;DHT22;30583;48.714;9.386;2023-08-06T04:48:21;17.70;73.80
44851;DHT22;30583;48.714;9.386;2023-08-06T04:50:48;17.80;73.60
44851;DHT22;30583;48.714;9.386;2023-08-06T04:53:14;17.80;73.80
44851;DHT22;30583;48.714;9.386;2023-08-06T04:55:40;17.50;73.70
44851;DHT22;30583;48.714;9.386;2023-08-06T04:58:06;17.30;74.90
44851;DHT22;30583;48.714;9.386;2023-08-06T05:00:32;17.10;74.80
44851;DHT22;30583;48.714;9.386;2023-08-06T05:03:00;17.60;73.50
44851;DHT22;30583;48.714;9.386;2023-08-06T05:05:26;17.20;74.20
44851;DHT22;30583;48.714;9.386;2023-08-06T05:07:53;16.90;74.70
44851;DHT22;30583;48.714;9.386;2023-08-06T05:10:19;16.90;74.90
44851;DHT22;30583;48.714;9.386;2023-08-06T05:12:44;17.20;74.40
44851;DHT22;30583;48.714;9.386;2023-08-06T05:15:10;17.20;74.50
44851;DHT22;30583;48.714;9.386;2023-08-06T05:17:36;17.10;74.20
44851;DHT22;30583;48.714;9.386;2023-08-06T05:20:01;16.90;74.40
44851;DHT22;30583;48.714;9.386;2023-08-06T05:22:27;17.00;74.40
44851;DHT22;30583;48.714;9.386;2023-08-06T05:24:52;17.10;74.00
44851;DHT22;30583;48.714;9.386;2023-08-06T05:27:18;17.10;73.70
44851;DHT22;30583;48.714;9.386;2023-08-06T05:29:48;16.70;74.10
44851;DHT22;30583;48.714;9.386;2023-08-06T05:32:13;16.90;74.50
44851;DHT22;30583;48.714;9.386;2023-08-06T05:34:39;16.90;73.60
44851;DHT22;30583;48.714;9.386;2023-08-06T05:37:05;17.20;73.30
44851;DHT22;30583;48.714;9.386;2023-08-06T05:39:30;17.00;73.60
44851;DHT22;30583;48.714;9.386;2023-08-06T05:41:56;17.20;73.10
44851;DHT22;30583;48.714;9.386;2023-08-06T05:44:23;17.10;73.50
44851;DHT22;30583;48.714;9.386;2023-08-06T05:46:49;17.40;72.60
44851;DHT22;30583;48.714;9.386;2023-08-06T05:49:15;17.40;72.50
44851;DHT22;30583;48.714;9.386;2023-08-06T05:51:41;17.40;72.60
44851;DHT22;30583;48.714;9.386;2023-08-06T05:54:07;17.70;72.00
44851;DHT22;30583;48.714;9.386;2023-08-06T05:56:33;17.80;72.50
44851;DHT22;30583;48.714;9.386;2023-08-06T05:58:58;17.90;71.70
44851;DHT22;30583;48.714;9.386;2023-08-06T06:01:24;17.70;72.20
44851;DHT22;30583;48.714;9.386;2023-08-06T06:03:49;17.80;72.70
44851;DHT22;30583;48.714;9.386;2023-08-06T06:06:15;17.80;72.50
44851;DHT22;30583;48.714;9.386;2023-08-06T06:08:41;17.70;73.20
44851;DHT22;30583;48.714;9.386;2023-08-06T06:11:07;17.70;73.60
44851;DHT22;30583;48.714;9.386;2023-08-06T06:13:33;17.60;74.30
44851;DHT22;30583;48.714;9.386;2023-08-06T06:15:58;17.20;73.50
44851;DHT22;30583;48.714;9.386;2023-08-06T06:18:24;17.10;74.20
44851;DHT22;30583;48.714;9.386;2023-08-06T06:20:49;17.10;74.20
44851;DHT22;30583;48.714;9.386;2023-08-06T06:23:15;17.20;73.80
44851;DHT22;30583;48.714;9.386;2023-08-06T06:25:47;17.00;73.80
44851;DHT22;30583;48.714;9.386;2023-08-06T06:28:13;17.20;73.70
44851;DHT22;30583;48.714;9.386;2023-08-06T06:30:38;17.20;73.50
44851;DHT22;30583;48.714;9.386;2023-08-06T06:33:04;17.10;74.40
44851;DHT22;30583;48.714;9.386;2023-08-06T06:35:29;17.50;73.20
44851;DHT22;30583;48.714;9.386;2023-08-06T06:37:55;17.20;73.10
44851;DHT22;30583;48.714;9.386;2023-08-06T06:40:21;17.10;73.60
44851;DHT22;30583;48.714;9.386;2023-08-06T06:42:46;17.00;73.90
44851;DHT22;30583;48.714;9.386;2023-08-06T06:45:12;16.70;74.50
44851;DHT22;30583;48.714;9.386;2023-08-06T06:47:37;16.80;74.80
44851;DHT22;30583;48.714;9.386;2023-08-06T06:50:03;16.60;74.40
44851;DHT22;30583;48.714;9.386;2023-08-06T06:52:30;16.70;74.40
44851;DHT22;30583;48.714;9.386;2023-08-06T06:54:55;17.00;74.50
44851;DHT22;30583;48.714;9.386;2023-08-06T06:57:21;16.90;73.90
44851;DHT22;30583;48.714;9.386;2023-08-06T06:59:46;17.10;73.90
44851;DHT22;30583;48.714;9.386;2023-08-06T07:02:12;17.20;72.90
44851;DHT22;30583;48.714;9.386;2023-08-06T07:04:37;16.90;74.30
44851;DHT22;30583;48.714;9.386;2023-08-06T07:07:03;17.20;74.20
44851;DHT22;30583;48.714;9.386;2023-08-06T07:09:29;16.90;74.60
44851;DHT22;30583;48.714;9.386;2023-08-06T07:11:55;17.10;74.60
44851;DHT22;30583;48.714;9.386;2023-08-06T07:14:20;17.10;74.90
44851;DHT22;30583;48.714;9.386;2023-08-06T07:16:46;17.10;74.70
44851;DHT22;30583;48.714;9.386;2023-08-06T07:19:11;17.10;73.60
44851;DHT22;30583;48.714;9.386;2023-08-06T07:21:37;16.70;75.50
44851;DHT22;30583;48.714;9.386;2023-08-06T07:24:03;17.00;75.50
44851;DHT22;30583;48.714;9.386;2023-08-06T07:26:28;16.50;75.90
44851;DHT22;30583;48.714;9.386;2023-08-06T07:28:54;16.90;75.60
44851;DHT22;30583;48.714;9.386;2023-08-06T07:31:19;16.70;75.60
44851;DHT22;30583;48.714;9.386;2023-08-06T07:33:45;17.00;75.60
44851;DHT22;30583;48.714;9.386;2023-08-06T07:36:12;17.00;75.60
44851;DHT22;30583;48.714;9.386;2023-08-06T07:38:38;16.80;75.70
44851;DHT22;30583;48.714;9.386;2023-08-06T07:41:04;16.80;76.50
44851;DHT22;30583;48.714;9.386;2023-08-06T07:43:30;16.70;76.70
44851;DHT22;30583;48.714;9.386;2023-08-06T07:45:59;16.90;76.30
44851;DHT22;30583;48.714;9.386;2023-08-06T07:48:26;16.70;76.90
44851;DHT22;30583;48.714;9.386;2023-08-06T07:50:52;16.80;76.60
44851;DHT22;30583;48.714;9.386;2023-08-06T07:53:22;17.00;76.40
44851;DHT22;30583;48.714;9.386;2023-08-06T07:55:52;17.10;75.90
44851;DHT22;30583;48.714;9.386;2023-08-06T07:58:18;16.90;75.30
44851;DHT22;30583;48.714;9.386;2023-08-06T08:00:44;16.50;76.10
44851;DHT22;30583;48.714;9.386;2023-08-06T08:03:14;16.90;76.10
44851;DHT22;30583;48.714;9.386;2023-08-06T08:05:42;16.60;76.40
44851;DHT22;30583;48.714;9.386;2023-08-06T08:08:08;16.60;76.70
44851;DHT22;30583;48.714;9.386;2023-08-06T08:10:34;16.60;76.00
44851;DHT22;30583;48.714;9.386;2023-08-06T08:13:00;16.90;75.60
44851;DHT22;30583;48.714;9.386;2023-08-06T08:15:27;16.90;75.80
44851;DHT22;30583;48.714;9.386;2023-08-06T08:17:53;16.90;75.70
44851;DHT22;30583;48.714;9.386;2023-08-06T08:20:19;17.40;74.20
44851;DHT22;30583;48.714;9.386;2023-08-06T08:22:44;17.30;74.50
44851;DHT22;30583;48.714;9.386;2023-08-06T08:25:10;17.20;73.50
44851;DHT22;30583;48.714;9.386;2023-08-06T08:27:36;17.10;74.70
44851;DHT22;30583;48.714;9.386;2023-08-06T08:30:01;17.00;74.60
44851;DHT22;30583;48.714;9.386;2023-08-06T08:32:27;17.00;74.50
44851;DHT22;30583;48.714;9.386;2023-08-06T08:34:52;16.70;74.40
44851;DHT22;30583;48.714;9.386;2023-08-06T08:37:18;17.00;75.70
44851;DHT22;30583;48.714;9.386;2023-08-06T08:39:44;17.40;74.50
44851;DHT22;30583;48.714;9.386;2023-08-06T08:42:10;17.20;73.90
44851;DHT22;30583;48.714;9.386;2023-08-06T08:44:36;16.90;73.80
44851;DHT22;30583;48.714;9.386;2023-08-06T08:47:08;17.00;74.30
44851;DHT22;30583;48.714;9.386;2023-08-06T08:49:36;17.00;74.70
44851;DHT22;30583;48.714;9.386;2023-08-06T08:52:02;17.20;74.00
44851;DHT22;30583;48.714;9.386;2023-08-06T08:54:28;16.90;73.30
44851;DHT22;30583;48.714;9.386;2023-08-06T08:56:56;16.70;73.70
44851;DHT22;30583;48.714;9.386;2023-08-06T08:59:22;16.70;74.60
44851;DHT22;30583;48.714;9.386;2023-08-06T09:01:49;16.70;75.20
44851;DHT22;30583;48.714;9.386;2023-08-06T09:04:18;16.90;74.90
44851;DHT22;30583;48.714;9.386;2023-08-06T09:06:47;16.70;75.80
44851;DHT22;30583;48.714;9.386;2023-08-06T09:09:20;16.70;75.60
44851;DHT22;30583;48.714;9.386;2023-08-06T09:11:48;16.50;75.50
44851;DHT22;30583;48.714;9.386;2023-08-06T09:14:15;16.90;74.90
44851;DHT22;30583;48.714;9.386;2023-08-06T09:16:41;16.90;74.90
44851;DHT22;30583;48.714;9.386;2023-08-06T09:19:10;16.80;74.80
44851;DHT22;30583;48.714;9.386;2023-08-06T09:21:38;17.00;74.70
44851;DHT22;30583;48.714;9.386;2023-08-06T09:24:11;16.90;74.60
44851;DHT22;30583;48.714;9.386;2023-08-06T09:26:39;17.00;74.90
44851;DHT22;30583;48.714;9.386;2023-08-06T09:29:05;16.90;74.80
44851;DHT22;30583;48.714;9.386;2023-08-06T09:31:54;17.20;74.40
44851;DHT22;30583;48.714;9.386;2023-08-06T09:34:20;17.10;74.20
44851;DHT22;30583;48.714;9.386;2023-08-06T09:36:48;16.80;74.70
44851;DHT22;30583;48.714;9.386;2023-08-06T09:39:17;17.00;73.90
44851;DHT22;30583;48.714;9.386;2023-08-06T09:41:43;17.20;74.00
44851;DHT22;30583;48.714;9.386;2023-08-06T09:44:20;17.10;74.10
44851;DHT22;30583;48.714;9.386;2023-08-06T09:46:52;17.20;74.20
44851;DHT22;30583;48.714;9.386;2023-08-06T09:49:19;17.50;71.90
44851;DHT22;30583;48.714;9.386;2023-08-06T09:51:48;17.20;73.00
44851;DHT22;30583;48.714;9.386;2023-08-06T09:54:17;17.10;74.00
44851;DHT22;30583;48.714;9.386;2023-08-06T09:56:44;17.00;73.50
44851;DHT22;30583;48.714;9.386;2023-08-06T09:59:10;17.10;74.10
44851;DHT22;30583;48.714;9.386;2023-08-06T10:01:36;17.00;74.80
44851;DHT22;30583;48.714;9.386;2023-08-06T10:04:04;17.00;75.10
44851;DHT22;30583;48.714;9.386;2023-08-06T10:06:34;17.00;74.50
44851;DHT22;30583;48.714;9.386;2023-08-06T10:09:02;17.10;74.80
44851;DHT22;30583;48.714;9.386;2023-08-06T10:11:29;17.10;74.30
44851;DHT22;30583;48.714;9.386;2023-08-06T10:14:08;17.30;74.50
44851;DHT22;30583;48.714;9.386;2023-08-06T10:16:36;17.20;74.20
44851;DHT22;30583;48.714;9.386;2023-08-06T10:19:03;17.10;74.90
44851;DHT22;30583;48.714;9.386;2023-08-06T10:21:31;16.80;76.00
44851;DHT22;30583;48.714;9.386;2023-08-06T10:23:57;16.90;76.30
44851;DHT22;30583;48.714;9.386;2023-08-06T10:26:27;17.00;76.80
44851;DHT22;30583;48.714;9.386;2023-08-06T10:28:53;16.80;77.50
44851;DHT22;30583;48.714;9.386;2023-08-06T10:31:18;16.70;77.90
44851;DHT22;30583;48.714;9.386;2023-08-06T10:33:46;16.70;78.40
44851;DHT22;30583;48.714;9.386;2023-08-06T10:36:12;16.70;78.90
44851;DHT22;30583;48.714;9.386;2023-08-06T10:38:48;16.50;79.30
44851;DHT22;30583;48.714;9.386;2023-08-06T10:41:30;16.70;78.60
44851;DHT22;30583;48.714;9.386;2023-08-06T10:44:06;16.60;80.00
44851;DHT22;30583;48.714;9.386;2023-08-06T10:46:33;17.00;80.00
44851;DHT22;30583;48.714;9.386;2023-08-06T10:48:59;17.00;79.00
44851;DHT22;30583;48.714;9.386;2023-08-06T10:51:25;16.90;79.00
44851;DHT22;30583;48.714;9.386;2023-08-06T10:53:51;17.00;79.80
44851;DHT22;30583;48.714;9.386;2023-08-06T10:56:18;16.90;79.80
44851;DHT22;30583;48.714;9.386;2023-08-06T10:58:45;16.80;79.70
44851;DHT22;30583;48.714;9.386;2023-08-06T11:01:11;16.70;79.60
44851;DHT22;30583;48.714;9.386;2023-08-06T11:03:38;16.70;80.30
44851;DHT22;30583;48.714;9.386;2023-08-06T11:06:06;16.70;79.50
44851;DHT22;30583;48.714;9.386;2023-08-06T11:08:40;16.40;79.30
44851;DHT22;30583;48.714;9.386;2023-08-06T11:11:13;16.40;79.80
44851;DHT22;30583;48.714;9.386;2023-08-06T11:13:46;16.60;80.10
44851;DHT22;30583;48.714;9.386;2023-08-06T11:16:22;16.40;79.50
44851;DHT22;30583;48.714;9.386;2023-08-06T11:18:51;16.50;79.70
44851;DHT22;30583;48.714;9.386;2023-08-06T11:21:22;16.50;79.60
44851;DHT22;30583;48.714;9.386;2023-08-06T11:23:50;16.70;79.50
44851;DHT22;30583;48.714;9.386;2023-08-06T11:26:22;16.70;79.70
44851;DHT22;30583;48.714;9.386;2023-08-06T11:28:51;16.50;79.20
44851;DHT22;30583;48.714;9.386;2023-08-06T11:31:23;16.50;80.70
44851;DHT22;30583;48.714;9.386;2023-08-06T11:33:52;16.60;81.40
44851;DHT22;30583;48.714;9.386;2023-08-06T11:36:29;16.50;80.90
44851;DHT22;30583;48.714;9.386;2023-08-06T11:38:55;16.40;81.20
44851;DHT22;30583;48.714;9.386;2023-08-06T11:41:20;16.20;81.40
44851;DHT22;30583;48.714;9.386;2023-08-06T11:43:46;16.20;81.70
44851;DHT22;30583;48.714;9.386;2023-08-06T11:46:12;16.20;81.10
44851;DHT22;30583;48.714;9.386;2023-08-06T11:48:54;16.40;79.50
44851;DHT22;30583;48.714;9.386;2023-08-06T11:51:26;16.50;78.50
44851;DHT22;30583;48.714;9.386;2023-08-06T11:53:58;16.90;78.60
44851;DHT22;30583;48.714;9.386;2023-08-06T11:56:25;17.10;79.10
44851;DHT22;30583;48.714;9.386;2023-08-06T11:58:51;16.80;77.90
44851;DHT22;30583;48.714;9.386;2023-08-06T12:01:18;16.90;77.50
44851;DHT22;30583;48.714;9.386;2023-08-06T12:03:43;17.10;75.90
44851;DHT22;30583;48.714;9.386;2023-08-06T12:06:09;17.30;75.90
44851;DHT22;30583;48.714;9.386;2023-08-06T12:08:35;17.20;75.10
44851;DHT22;30583;48.714;9.386;2023-08-06T12:11:00;17.20;75.00
44851;DHT22;30583;48.714;9.386;2023-08-06T12:13:26;16.90;74.20
44851;DHT22;30583;48.714;9.386;2023-08-06T12:15:53;16.90;74.60
44851;DHT22;30583;48.714;9.386;2023-08-06T12:18:19;16.70;74.20
44851;DHT22;30583;48.714;9.386;2023-08-06T12:20:45;16.80;74.40
44851;DHT22;30583;48.714;9.386;2023-08-06T12:23:10;16.90;73.30
44851;DHT22;30583;48.714;9.386;2023-08-06T12:25:40;17.50;75.70
44851;DHT22;30583;48.714;9.386;2023-08-06T12:28:06;17.20;72.60
44851;DHT22;30583;48.714;9.386;2023-08-06T12:30:33;16.70;72.40
44851;DHT22;30583;48.714;9.386;2023-08-06T12:32:58;16.70;73.50
44851;DHT22;30583;48.714;9.386;2023-08-06T12:35:24;16.70;73.10
44851;DHT22;30583;48.714;9.386;2023-08-06T12:37:51;16.70;72.20
44851;DHT22;30583;48.714;9.386;2023-08-06T12:40:20;16.70;72.40
44851;DHT22;30583;48.714;9.386;2023-08-06T12:42:46;16.70;72.30
44851;DHT22;30583;48.714;9.386;2023-08-06T12:45:11;16.70;72.50
44851;DHT22;30583;48.714;9.386;2023-08-06T12:47:37;16.70;72.10
44851;DHT22;30583;48.714;9.386;2023-08-06T12:50:03;16.60;72.40
44851;DHT22;30583;48.714;9.386;2023-08-06T12:52:29;16.80;72.00
44851;DHT22;30583;48.714;9.386;2023-08-06T12:54:55;16.80;70.90
44851;DHT22;30583;48.714;9.386;2023-08-06T12:57:20;16.60;71.10
44851;DHT22;30583;48.714;9.386;2023-08-06T12:59:46;16.70;71.20
44851;DHT22;30583;48.714;9.386;2023-08-06T13:02:11;16.80;70.90
44851;DHT22;30583;48.714;9.386;2023-08-06T13:04:37;17.20;73.50
44851;DHT22;30583;48.714;9.386;2023-08-06T13:07:02;17.20;68.80
44851;DHT22;30583;48.714;9.386;2023-08-06T13:09:28;17.20;70.00
44851;DHT22;30583;48.714;9.386;2023-08-06T13:11:54;17.00;70.00
44851;DHT22;30583;48.714;9.386;2023-08-06T13:14:20;17.00;70.00
44851;DHT22;30583;48.714;9.386;2023-08-06T13:16:46;16.90;70.50
44851;DHT22;30583;48.714;9.386;2023-08-06T13:19:12;17.10;71.30
44851;DHT22;30583;48.714;9.386;2023-08-06T13:24:07;16.70;69.50
44851;DHT22;30583;48.714;9.386;2023-08-06T13:26:33;16.80;69.30
44851;DHT22;30583;48.714;9.386;2023-08-06T13:28:59;16.70;68.60
44851;DHT22;30583;48.714;9.386;2023-08-06T13:31:26;16.70;68.40
44851;DHT22;30583;48.714;9.386;2023-08-06T13:33:53;16.80;68.30
44851;DHT22;30583;48.714;9.386;2023-08-06T13:36:21;17.00;69.00
44851;DHT22;30583;48.714;9.386;2023-08-06T13:38:52;17.00;68.60
44851;DHT22;30583;48.714;9.386;2023-08-06T13:41:18;17.00;68.10
44851;DHT22;30583;48.714;9.386;2023-08-06T13:43:43;17.00;67.10
44851;DHT22;30583;48.714;9.386;2023-08-06T13:46:12;17.10;67.40
44851;DHT22;30583;48.714;9.386;2023-08-06T13:48:41;17.20;67.60
44851;DHT22;30583;48.714;9.386;2023-08-06T13:51:07;17.10;67.00
44851;DHT22;30583;48.714;9.386;2023-08-06T13:53:33;17.00;67.40
44851;DHT22;30583;48.714;9.386;2023-08-06T13:55:58;17.10;67.40
44851;DHT22;30583;48.714;9.386;2023-08-06T13:58:24;17.20;67.50
44851;DHT22;30583;48.714;9.386;2023-08-06T14:00:51;17.20;67.50
44851;DHT22;30583;48.714;9.386;2023-08-06T14:03:18;17.20;67.50
44851;DHT22;30583;48.714;9.386;2023-08-06T14:05:44;17.10;66.60
44851;DHT22;30583;48.714;9.386;2023-08-06T14:08:10;17.40;65.60
44851;DHT22;30583;48.714;9.386;2023-08-06T14:10:35;17.60;65.00
44851;DHT22;30583;48.714;9.386;2023-08-06T14:13:01;17.40;66.00
44851;DHT22;30583;48.714;9.386;2023-08-06T14:15:26;17.70;64.90
44851;DHT22;30583;48.714;9.386;2023-08-06T14:17:52;17.50;64.90
44851;DHT22;30583;48.714;9.386;2023-08-06T14:20:17;17.90;65.90
44851;DHT22;30583;48.714;9.386;2023-08-06T14:22:43;18.40;64.50
44851;DHT22;30583;48.714;9.386;2023-08-06T14:25:09;18.20;63.80
44851;DHT22;30583;48.714;9.386;2023-08-06T14:27:34;18.00;64.50
44851;DHT22;30583;48.714;9.386;2023-08-06T14:30:00;17.70;65.50
44851;DHT22;30583;48.714;9.386;2023-08-06T14:32:26;18.40;63.60
44851;DHT22;30583;48.714;9.386;2023-08-06T14:34:51;18.20;64.10
44851;DHT22;30583;48.714;9.386;2023-08-06T14:37:17;18.80;61.70
44851;DHT22;30583;48.714;9.386;2023-08-06T14:39:43;19.50;61.30
44851;DHT22;30583;48.714;9.386;2023-08-06T14:42:08;19.90;60.50
44851;DHT22;30583;48.714;9.386;2023-08-06T14:44:34;20.00;58.20
44851;DHT22;30583;48.714;9.386;2023-08-06T14:46:59;20.00;59.30
44851;DHT22;30583;48.714;9.386;2023-08-06T14:49:25;19.40;61.50
44851;DHT22;30583;48.714;9.386;2023-08-06T14:51:51;18.50;62.40
44851;DHT22;30583;48.714;9.386;2023-08-06T14:54:16;19.00;59.80
44851;DHT22;30583;48.714;9.386;2023-08-06T14:56:43;18.10;62.40
44851;DHT22;30583;48.714;9.386;2023-08-06T14:59:09;17.70;63.90
44851;DHT22;30583;48.714;9.386;2023-08-06T15:01:34;17.30;65.20
44851;DHT22;30583;48.714;9.386;2023-08-06T15:04:00;17.30;66.00
44851;DHT22;30583;48.714;9.386;2023-08-06T15:06:25;17.20;66.40
44851;DHT22;30583;48.714;9.386;2023-08-06T15:08:51;17.40;66.20
44851;DHT22;30583;48.714;9.386;2023-08-06T15:11:16;17.20;67.20
44851;DHT22;30583;48.714;9.386;2023-08-06T15:13:42;17.30;67.30
44851;DHT22;30583;48.714;9.386;2023-08-06T15:16:08;17.00;67.30
44851;DHT22;30583;48.714;9.386;2023-08-06T15:18:33;16.80;68.20
44851;DHT22;30583;48.714;9.386;2023-08-06T15:20:59;16.70;68.70
44851;DHT22;30583;48.714;9.386;2023-08-06T15:23:24;16.80;68.60
44851;DHT22;30583;48.714;9.386;2023-08-06T15:25:50;16.80;68.30
44851;DHT22;30583;48.714;9.386;2023-08-06T15:28:16;16.90;68.60
44851;DHT22;30583;48.714;9.386;2023-08-06T15:30:50;17.20;67.60
44851;DHT22;30583;48.714;9.386;2023-08-06T15:33:17;17.40;66.70
44851;DHT22;30583;48.714;9.386;2023-08-06T15:35:42;17.30;66.80
44851;DHT22;30583;48.714;9.386;2023-08-06T15:38:08;17.50;66.00
44851;DHT22;30583;48.714;9.386;2023-08-06T15:40:33;17.60;65.80